Startpagina
METAR-TAF:

METAR-TAF

Vliegvelden :

Kaneohe, Hawaï, Verenigde Staten

breedte: 21-27-14N, lengte: 157-45-56W, hoogte: 5 m

Actueel weer

Dit bericht is 35 minuten geleden gemaakt, om 06:57 UTC
Weinig wind
Temperatuur 23°C
Vochtigheid 78%
Druk 1015 hPa
Zicht: 16.1 km
Weinig wolken op 3500 ft

METAR: PHNG 100657Z 00000KT 10SM FEW035 23/19 A2997 RMK AO2 SLP145 T02330194 $

Tijdstip: 21:32 (07:32 UTC)

Verwachting

Verwachting geldig van 10 om 03 UTC tot 11 om 03 UTC
Wind 8 kt uit het oostnoordoosten
Zicht 10 km of meer
Weinig wolken op 3000 ft
Weinig wolken op 5000 ft
Tijdelijke
van 10 om 03 UTC tot 10 om 09 UTC
Wind 5 kt uit variabele richting
Wijzigt naar
van 10 om 09 UTC tot 10 om 10 UTC
Wind 5 kt uit variabele richting
Zicht 10 km of meer
Verspreide wolken op 2500 ft
Verspreide wolken op 4500 ft

TAF: PHNG 1003/1103 06008KT 9999 FEW030 FEW050 QNH2989INS TEMPO 1003/1009 VRB05KT BECMG 1009/1010 VRB05KT 9999 SCT025 SCT045 QNH2990INS T21/1012Z T27/1023Z

Waarnemingen en weersverwachtingen van meer dan 4000 vliegvelden (METAR en TAF).

De beschikbare stations zijn de gele en rode punten op de kaart.

Ga met uw muis naar het station om de naam te zien.

Klik dan om waarnemingen en weersverwachtingen te zien.

kaart wijzigen: klik op de groene knoppen met een zwart kruis om in te zoomen, op de groene knop met een streepje om uit te zoomen of op de groene pijlen voor aangrenzende kaarten.


METAR-TAF: